createdAt,value
2022-10-08T00:00:44.913Z,8.85
2022-10-08T00:01:44.909Z,8.88
2022-10-08T00:02:45.269Z,8.78
2022-10-08T00:03:44.930Z,8.98
2022-10-08T00:04:44.816Z,8.86
2022-10-08T00:05:44.845Z,9.01
2022-10-08T00:06:44.826Z,8.96
2022-10-08T00:07:44.787Z,9.00
2022-10-08T00:08:44.771Z,8.91
2022-10-08T00:09:44.763Z,8.78
2022-10-08T00:10:44.751Z,8.88
2022-10-08T00:11:44.751Z,8.80
2022-10-08T00:12:45.150Z,8.85
2022-10-08T00:13:44.722Z,8.78
2022-10-08T00:14:44.712Z,8.93
2022-10-08T00:15:44.695Z,8.75
2022-10-08T00:16:44.713Z,8.67
2022-10-08T00:17:44.687Z,8.70
2022-10-08T00:18:44.675Z,8.63
2022-10-08T00:19:44.650Z,8.63
2022-10-08T00:20:44.651Z,8.63
2022-10-08T00:21:44.671Z,8.73
2022-10-08T00:22:45.008Z,8.70
2022-10-08T00:23:44.623Z,8.80
2022-10-08T00:24:44.670Z,8.82
2022-10-08T00:25:44.605Z,8.71
2022-10-08T00:26:44.829Z,8.73
2022-10-08T00:27:44.571Z,8.76
2022-10-08T00:28:44.639Z,8.70
2022-10-08T00:29:44.549Z,8.70
2022-10-08T00:30:44.548Z,8.67
2022-10-08T00:31:44.625Z,8.60
2022-10-08T00:32:45.053Z,8.57
2022-10-08T00:33:44.500Z,8.50
2022-10-08T00:34:44.493Z,8.60
2022-10-08T00:35:44.483Z,8.57
2022-10-08T00:36:44.546Z,8.61
2022-10-08T00:37:44.485Z,8.68
2022-10-08T00:38:44.458Z,8.55
2022-10-08T00:39:44.443Z,8.60
2022-10-08T00:40:44.425Z,8.61
2022-10-08T00:41:44.411Z,8.50
2022-10-08T00:42:44.872Z,8.68
2022-10-08T00:43:44.396Z,8.55
2022-10-08T00:44:44.393Z,8.55
2022-10-08T00:45:44.522Z,8.46
2022-10-08T00:46:44.356Z,8.50
2022-10-08T00:47:44.348Z,8.50
2022-10-08T00:48:44.361Z,8.40
2022-10-08T00:49:44.338Z,8.40
2022-10-08T00:50:44.312Z,8.28
2022-10-08T00:51:44.302Z,8.40
2022-10-08T00:52:44.682Z,8.40
2022-10-08T00:53:44.346Z,8.37
2022-10-08T00:54:44.305Z,8.36
2022-10-08T00:55:44.301Z,8.34
2022-10-08T00:56:44.251Z,8.28
2022-10-08T00:57:44.450Z,8.22
2022-10-08T00:58:44.222Z,8.21
2022-10-08T00:59:44.216Z,8.31
2022-10-08T01:00:44.329Z,8.32
2022-10-08T01:01:44.311Z,8.32
2022-10-08T01:02:44.641Z,8.45
2022-10-08T01:03:44.198Z,8.34
2022-10-08T01:04:44.174Z,8.34
2022-10-08T01:05:44.154Z,8.40
2022-10-08T01:06:44.157Z,8.40
2022-10-08T01:07:44.133Z,8.43
2022-10-08T01:08:44.120Z,8.36
2022-10-08T01:09:44.141Z,8.45
2022-10-08T01:10:44.113Z,8.43
2022-10-08T01:11:44.088Z,8.36
2022-10-08T01:12:44.297Z,8.37
2022-10-08T01:13:44.076Z,8.36
2022-10-08T01:14:44.053Z,8.31
2022-10-08T01:15:44.049Z,8.31
2022-10-08T01:16:44.097Z,8.49
2022-10-08T01:17:44.020Z,8.37
2022-10-08T01:18:44.074Z,8.40
2022-10-08T01:19:44.001Z,8.55
2022-10-08T01:20:43.990Z,8.46
2022-10-08T01:21:43.974Z,8.42
2022-10-08T01:22:44.394Z,8.31
2022-10-08T01:23:43.954Z,8.28
2022-10-08T01:24:44.002Z,8.14
2022-10-08T01:25:43.958Z,8.22
2022-10-08T01:26:43.917Z,8.07
2022-10-08T01:27:43.908Z,8.06
2022-10-08T01:28:44.007Z,8.10
2022-10-08T01:29:43.888Z,8.03
2022-10-08T01:30:43.953Z,7.85
2022-10-08T01:31:43.958Z,7.94
2022-10-08T01:32:44.171Z,7.96
2022-10-08T01:33:43.854Z,8.06
2022-10-08T01:34:43.836Z,8.12
2022-10-08T01:35:43.824Z,8.21
2022-10-08T01:36:43.846Z,8.18
2022-10-08T01:37:43.801Z,8.21
2022-10-08T01:38:43.804Z,8.21
2022-10-08T01:39:43.796Z,8.25
2022-10-08T01:40:43.767Z,8.22
2022-10-08T01:41:43.786Z,8.28
2022-10-08T01:42:43.899Z,8.24
2022-10-08T01:43:43.733Z,8.25
2022-10-08T01:44:43.766Z,8.20
2022-10-08T01:45:43.814Z,8.21
2022-10-08T01:46:43.704Z,8.17
2022-10-08T01:47:43.696Z,8.04
2022-10-08T01:48:43.686Z,7.99
2022-10-08T01:49:43.672Z,7.96
2022-10-08T01:50:43.666Z,7.89
2022-10-08T01:51:43.668Z,7.79
2022-10-08T01:52:43.883Z,7.74
2022-10-08T01:53:43.628Z,7.77
2022-10-08T01:54:43.625Z,7.77
2022-10-08T01:55:43.609Z,7.71
2022-10-08T01:56:43.597Z,7.86
2022-10-08T01:57:43.624Z,7.92
2022-10-08T01:58:43.573Z,7.84
2022-10-08T01:59:43.562Z,7.91
2022-10-08T02:00:43.675Z,7.91
2022-10-08T02:01:43.547Z,7.84
2022-10-08T02:02:43.609Z,7.86
2022-10-08T02:03:43.535Z,7.86
2022-10-08T02:04:43.511Z,8.17
2022-10-08T02:05:43.501Z,8.17
2022-10-08T02:06:43.523Z,8.27
2022-10-08T02:07:43.491Z,8.31
2022-10-08T02:08:43.465Z,8.32
2022-10-08T02:09:43.458Z,8.27
2022-10-08T02:10:43.444Z,8.17
2022-10-08T02:11:43.434Z,8.18
2022-10-08T02:12:43.621Z,8.21
2022-10-08T02:13:43.436Z,8.29
2022-10-08T02:14:43.417Z,8.21
2022-10-08T02:15:43.388Z,8.12
2022-10-08T02:16:43.431Z,8.14
2022-10-08T02:17:43.364Z,8.20
2022-10-08T02:18:43.395Z,8.20
2022-10-08T02:19:43.346Z,8.04
2022-10-08T02:20:43.334Z,8.02
2022-10-08T02:21:43.323Z,8.20
2022-10-08T02:22:43.312Z,7.99
2022-10-08T02:23:43.302Z,7.91
2022-10-08T02:24:43.392Z,7.85
2022-10-08T02:25:43.280Z,7.92
2022-10-08T02:26:43.267Z,7.92
2022-10-08T02:27:43.268Z,7.89
2022-10-08T02:28:43.414Z,7.92
2022-10-08T02:29:43.266Z,7.79
2022-10-08T02:30:43.286Z,7.88
2022-10-08T02:31:43.263Z,7.92
2022-10-08T02:32:43.266Z,7.85
2022-10-08T02:33:43.195Z,7.86
2022-10-08T02:34:43.181Z,7.91
2022-10-08T02:35:43.172Z,7.89
2022-10-08T02:36:43.182Z,7.82
2022-10-08T02:37:43.149Z,7.94
2022-10-08T02:38:43.151Z,7.89
2022-10-08T02:39:43.127Z,7.84
2022-10-08T02:40:43.118Z,7.74
2022-10-08T02:41:43.110Z,7.66
2022-10-08T02:42:43.107Z,7.81
2022-10-08T02:43:43.087Z,7.77
2022-10-08T02:44:43.087Z,7.86
2022-10-08T02:45:43.202Z,7.91
2022-10-08T02:46:43.063Z,7.92
2022-10-08T02:47:43.042Z,7.91
2022-10-08T02:48:43.066Z,7.95
2022-10-08T02:49:43.021Z,7.85
2022-10-08T02:50:43.007Z,7.82
2022-10-08T02:51:43.272Z,7.74
2022-10-08T02:52:43.010Z,7.76
2022-10-08T02:53:42.975Z,7.88
2022-10-08T02:54:43.025Z,7.74
2022-10-08T02:55:42.953Z,7.91
2022-10-08T02:56:42.944Z,7.73
2022-10-08T02:57:42.933Z,7.77
2022-10-08T02:58:43.033Z,7.70
2022-10-08T02:59:42.969Z,7.86
2022-10-08T03:00:42.904Z,7.71
2022-10-08T03:01:42.959Z,7.77
2022-10-08T03:02:42.910Z,7.77
2022-10-08T03:03:42.866Z,7.67
2022-10-08T03:04:42.868Z,7.67
2022-10-08T03:05:42.912Z,7.74
2022-10-08T03:06:42.850Z,7.73
2022-10-08T03:07:42.824Z,7.66
2022-10-08T03:08:42.813Z,7.66
2022-10-08T03:09:42.806Z,7.66
2022-10-08T03:10:42.796Z,7.67
2022-10-08T03:11:42.797Z,7.57
2022-10-08T03:12:42.780Z,7.55
2022-10-08T03:13:42.760Z,7.52
2022-10-08T03:14:42.760Z,7.51
2022-10-08T03:15:42.752Z,7.60
2022-10-08T03:16:42.773Z,7.67
2022-10-08T03:17:42.781Z,7.67
2022-10-08T03:18:42.705Z,7.70
2022-10-08T03:19:42.704Z,7.81
2022-10-08T03:20:42.686Z,7.74
2022-10-08T03:21:42.675Z,7.92
2022-10-08T03:22:42.663Z,7.77
2022-10-08T03:23:42.713Z,7.79
2022-10-08T03:24:42.654Z,7.73
2022-10-08T03:25:42.631Z,7.74
2022-10-08T03:26:42.633Z,7.62
2022-10-08T03:27:42.610Z,7.73
2022-10-08T03:28:42.637Z,7.76
2022-10-08T03:29:42.596Z,7.74
2022-10-08T03:30:42.619Z,7.62
2022-10-08T03:31:42.776Z,7.79
2022-10-08T03:32:42.571Z,7.73
2022-10-08T03:33:42.584Z,7.70
2022-10-08T03:34:42.535Z,7.77
2022-10-08T03:35:42.596Z,7.81
2022-10-08T03:36:42.523Z,7.89
2022-10-08T03:37:42.503Z,7.79
2022-10-08T03:38:42.502Z,7.81
2022-10-08T03:39:42.478Z,7.69
2022-10-08T03:40:42.470Z,7.69
2022-10-08T03:41:42.512Z,7.81
2022-10-08T03:42:42.476Z,7.82
2022-10-08T03:43:42.448Z,7.89
2022-10-08T03:44:42.431Z,7.86
2022-10-08T03:45:42.479Z,7.95
2022-10-08T03:46:42.439Z,8.00
2022-10-08T03:47:42.462Z,8.02
2022-10-08T03:48:42.380Z,7.99
2022-10-08T03:49:42.399Z,7.99
2022-10-08T03:50:42.360Z,7.92
2022-10-08T03:51:42.355Z,7.91
2022-10-08T03:52:42.339Z,7.91
2022-10-08T03:53:42.401Z,7.86
2022-10-08T03:54:42.317Z,7.88
2022-10-08T03:55:42.336Z,7.88
2022-10-08T03:56:42.297Z,7.92
2022-10-08T03:57:42.287Z,7.82
2022-10-08T03:58:42.273Z,7.91
2022-10-08T03:59:42.329Z,7.82
2022-10-08T04:00:42.250Z,7.88
2022-10-08T04:01:42.366Z,7.88
2022-10-08T04:02:42.274Z,7.89
2022-10-08T04:03:42.221Z,7.92
2022-10-08T04:04:42.212Z,7.89
2022-10-08T04:05:42.232Z,7.95
2022-10-08T04:06:42.204Z,7.95
2022-10-08T04:07:42.178Z,7.85
2022-10-08T04:08:42.169Z,7.95
2022-10-08T04:09:42.154Z,7.95
2022-10-08T04:10:42.146Z,7.96
2022-10-08T04:11:42.139Z,7.82
2022-10-08T04:12:42.135Z,8.02
2022-10-08T04:13:42.164Z,7.85
2022-10-08T04:14:42.109Z,7.71
2022-10-08T04:15:42.147Z,7.67
2022-10-08T04:16:42.081Z,7.69
2022-10-08T04:17:42.162Z,7.66
2022-10-08T04:18:42.057Z,7.60
2022-10-08T04:19:42.045Z,7.66
2022-10-08T04:20:42.038Z,7.63
2022-10-08T04:21:42.049Z,7.54
2022-10-08T04:22:42.042Z,7.54
2022-10-08T04:23:42.016Z,7.58
2022-10-08T04:24:41.994Z,7.52
2022-10-08T04:25:42.067Z,7.54
2022-10-08T04:26:41.971Z,7.51
2022-10-08T04:27:41.967Z,7.50
2022-10-08T04:28:42.006Z,7.51
2022-10-08T04:29:41.954Z,7.70
2022-10-08T04:30:41.965Z,7.76
2022-10-08T04:31:41.928Z,7.67
2022-10-08T04:32:41.938Z,7.77
2022-10-08T04:33:41.898Z,7.82
2022-10-08T04:34:41.887Z,7.81
2022-10-08T04:35:41.872Z,7.77
2022-10-08T04:36:41.875Z,7.81
2022-10-08T04:37:41.906Z,7.77
2022-10-08T04:38:41.847Z,7.69
2022-10-08T04:39:41.838Z,7.79
2022-10-08T04:40:41.822Z,7.70
2022-10-08T04:41:42.033Z,7.69
2022-10-08T04:42:41.799Z,7.67
2022-10-08T04:43:41.823Z,7.69
2022-10-08T04:44:41.777Z,7.74
2022-10-08T04:45:41.767Z,7.70
2022-10-08T04:46:41.802Z,7.74
2022-10-08T04:47:41.853Z,7.70
2022-10-08T04:48:41.739Z,7.70
2022-10-08T04:49:41.777Z,7.71
2022-10-08T04:50:41.712Z,7.69
2022-10-08T04:51:41.699Z,7.84
2022-10-08T04:52:41.687Z,7.71
2022-10-08T04:53:41.720Z,7.71
2022-10-08T04:54:41.672Z,7.73
2022-10-08T04:55:41.660Z,7.77
2022-10-08T04:56:41.652Z,7.66
2022-10-08T04:57:41.642Z,7.69
2022-10-08T04:58:41.637Z,7.71
2022-10-08T04:59:59.466Z,7.69
2022-10-08T05:00:42.602Z,7.70
2022-10-08T05:01:41.713Z,7.67
2022-10-08T05:02:41.611Z,7.63
2022-10-08T05:03:41.579Z,7.71
2022-10-08T05:04:41.586Z,7.77
2022-10-08T05:05:41.554Z,7.70
2022-10-08T05:06:41.539Z,7.77
2022-10-08T05:07:41.574Z,7.76
2022-10-08T05:08:41.519Z,7.69
2022-10-08T05:09:41.626Z,7.79
2022-10-08T05:10:41.508Z,7.74
2022-10-08T05:11:41.486Z,7.79
2022-10-08T05:12:41.476Z,7.74
2022-10-08T05:13:41.519Z,7.73
2022-10-08T05:14:41.454Z,7.74
2022-10-08T05:15:41.500Z,7.58
2022-10-08T05:16:41.453Z,7.58
2022-10-08T05:17:41.422Z,7.66
2022-10-08T05:18:41.461Z,7.58
2022-10-08T05:19:41.451Z,7.70
2022-10-08T05:20:41.391Z,7.66
2022-10-08T05:21:41.378Z,7.52
2022-10-08T05:22:41.380Z,7.55
2022-10-08T05:23:41.355Z,7.48
2022-10-08T05:24:41.345Z,7.42
2022-10-08T05:25:41.394Z,7.23
2022-10-08T05:26:58.885Z,7.19
2022-10-08T05:27:42.325Z,7.39
2022-10-08T05:28:41.363Z,7.33
2022-10-08T05:29:41.291Z,7.23
2022-10-08T05:30:41.282Z,7.36
2022-10-08T05:31:41.315Z,7.37
2022-10-08T05:32:41.267Z,7.48
2022-10-08T05:33:41.261Z,7.58
2022-10-08T05:34:41.245Z,7.54
2022-10-08T05:35:41.229Z,7.69
2022-10-08T05:36:41.218Z,7.67
2022-10-08T05:37:41.248Z,7.79
2022-10-08T05:38:41.408Z,7.76
2022-10-08T05:39:41.197Z,7.74
2022-10-08T05:40:41.184Z,7.81
2022-10-08T05:41:41.259Z,7.84
2022-10-08T05:42:41.156Z,7.86
2022-10-08T05:43:41.146Z,7.82
2022-10-08T05:44:45.282Z,7.84
2022-10-08T05:45:41.121Z,7.92
2022-10-08T05:46:41.198Z,7.85
2022-10-08T05:47:41.098Z,7.85
2022-10-08T05:48:41.087Z,8.02
2022-10-08T05:49:41.093Z,7.92
2022-10-08T05:50:41.067Z,8.00
2022-10-08T05:51:41.055Z,8.13
2022-10-08T05:52:41.042Z,8.03
2022-10-08T05:53:41.030Z,8.14
2022-10-08T05:54:41.035Z,8.06
2022-10-08T05:55:41.106Z,8.06
2022-10-08T05:56:41.000Z,8.13
2022-10-08T05:57:41.019Z,8.07
2022-10-08T05:58:40.979Z,8.09
2022-10-08T05:59:40.965Z,8.10
2022-10-08T06:00:40.973Z,8.12
2022-10-08T06:01:41.000Z,7.96
2022-10-08T06:02:41.031Z,7.96
2022-10-08T06:03:40.931Z,7.94
2022-10-08T06:04:40.979Z,7.82
2022-10-08T06:05:40.913Z,7.84
2022-10-08T06:06:40.892Z,7.91
2022-10-08T06:07:40.965Z,7.66
2022-10-08T06:08:40.885Z,7.77
2022-10-08T06:09:40.859Z,7.74
2022-10-08T06:10:40.848Z,7.70
2022-10-08T06:11:40.846Z,7.71
2022-10-08T06:12:40.825Z,7.66
2022-10-08T06:13:40.903Z,7.85
2022-10-08T06:14:40.820Z,7.84
2022-10-08T06:15:40.801Z,7.88
2022-10-08T06:16:40.830Z,7.91
2022-10-08T06:17:40.774Z,8.14
2022-10-08T06:18:40.771Z,8.21
2022-10-08T06:19:40.762Z,8.27
2022-10-08T06:20:40.756Z,8.31
2022-10-08T06:21:40.728Z,8.36
2022-10-08T06:22:40.729Z,8.27
2022-10-08T06:23:40.707Z,8.10
2022-10-08T06:24:40.696Z,8.14
2022-10-08T06:25:40.710Z,8.06
2022-10-08T06:26:40.675Z,8.00
2022-10-08T06:27:40.676Z,8.04
2022-10-08T06:28:40.701Z,8.03
2022-10-08T06:29:40.670Z,8.00
2022-10-08T06:30:40.646Z,8.07
2022-10-08T06:31:40.741Z,8.09
2022-10-08T06:32:40.611Z,8.17
2022-10-08T06:33:40.600Z,8.14
2022-10-08T06:34:40.591Z,8.17
2022-10-08T06:35:40.578Z,8.24
2022-10-08T06:36:40.567Z,8.34
2022-10-08T06:37:40.637Z,8.34
2022-10-08T06:38:40.555Z,8.36
2022-10-08T06:39:43.816Z,8.37
2022-10-08T06:40:41.523Z,8.27
2022-10-08T06:41:40.523Z,8.43
2022-10-08T06:42:40.514Z,8.28
2022-10-08T06:43:40.552Z,8.28
2022-10-08T06:44:40.486Z,8.29
2022-10-08T06:45:40.492Z,8.34
2022-10-08T06:46:40.557Z,8.34
2022-10-08T06:47:40.446Z,8.28
2022-10-08T06:48:40.435Z,8.28
2022-10-08T06:49:40.429Z,8.24
2022-10-08T06:50:40.481Z,8.14
2022-10-08T06:51:40.515Z,8.20
2022-10-08T06:52:40.397Z,8.29
2022-10-08T06:53:40.388Z,8.83
2022-10-08T06:54:40.381Z,9.63
2022-10-08T06:55:40.360Z,9.88
2022-10-08T06:56:40.416Z,10.42
2022-10-08T06:57:40.351Z,10.68
2022-10-08T06:58:40.328Z,11.13
2022-10-08T06:59:40.316Z,11.45
2022-10-08T07:00:40.316Z,11.05
2022-10-08T07:01:40.507Z,11.13
2022-10-08T07:02:40.586Z,11.35
2022-10-08T07:03:40.280Z,11.69
2022-10-08T07:04:40.260Z,11.94
2022-10-08T07:05:40.251Z,12.11
2022-10-08T07:06:40.239Z,12.38
2022-10-08T07:07:40.227Z,12.41
2022-10-08T07:08:40.521Z,12.23
2022-10-08T07:09:40.211Z,12.05
2022-10-08T07:10:40.198Z,11.84
2022-10-08T07:11:40.188Z,11.69
2022-10-08T07:12:40.185Z,11.39
2022-10-08T07:13:40.181Z,11.82
2022-10-08T07:14:40.221Z,12.07
2022-10-08T07:15:40.143Z,12.30
2022-10-08T07:16:40.164Z,12.25
2022-10-08T07:17:40.146Z,12.41
2022-10-08T07:18:40.112Z,12.88
2022-10-08T07:19:40.112Z,12.80
2022-10-08T07:20:40.097Z,13.12
2022-10-08T07:21:40.099Z,13.44
2022-10-08T07:22:40.072Z,13.24
2022-10-08T07:23:40.059Z,13.51
2022-10-08T07:24:40.048Z,13.53
2022-10-08T07:25:40.036Z,13.61
2022-10-08T07:26:40.082Z,13.10
2022-10-08T07:27:44.758Z,12.98
2022-10-08T07:28:41.067Z,13.31
2022-10-08T07:29:39.991Z,13.61
2022-10-08T07:30:39.979Z,13.96
2022-10-08T07:31:40.043Z,13.99
2022-10-08T07:32:40.009Z,13.96
2022-10-08T07:33:40.034Z,14.35
2022-10-08T07:34:39.940Z,14.01
2022-10-08T07:35:39.935Z,13.59
2022-10-08T07:36:39.914Z,13.46
2022-10-08T07:37:39.908Z,13.54
2022-10-08T07:38:39.891Z,13.69
2022-10-08T07:39:39.900Z,13.84
2022-10-08T07:40:39.873Z,13.68
2022-10-08T07:41:40.074Z,13.29
2022-10-08T07:42:39.861Z,13.46
2022-10-08T07:43:39.851Z,13.62
2022-10-08T07:44:39.845Z,13.88
2022-10-08T07:45:39.830Z,13.76
2022-10-08T07:46:39.809Z,13.79
2022-10-08T07:47:39.798Z,13.27
2022-10-08T07:48:39.815Z,13.04
2022-10-08T07:49:39.846Z,12.96
2022-10-08T07:50:39.775Z,13.16
2022-10-08T07:51:39.758Z,13.44
2022-10-08T07:52:39.749Z,13.39
2022-10-08T07:53:39.735Z,14.01
2022-10-08T07:54:39.721Z,14.26
2022-10-08T07:55:39.736Z,14.13
2022-10-08T07:56:39.707Z,14.38
2022-10-08T07:57:39.690Z,14.42
2022-10-08T07:58:39.695Z,14.75
2022-10-08T07:59:39.678Z,14.63
2022-10-08T08:00:39.693Z,14.53
2022-10-08T08:01:39.652Z,14.01
2022-10-08T08:02:39.636Z,14.16
2022-10-08T08:03:39.624Z,14.02
2022-10-08T08:04:39.621Z,14.21
2022-10-08T08:05:39.625Z,14.41
2022-10-08T08:06:39.591Z,14.24
2022-10-08T08:07:39.594Z,14.27
2022-10-08T08:08:39.568Z,14.31
2022-10-08T08:09:39.555Z,14.12
2022-10-08T08:10:39.545Z,14.05
2022-10-08T08:11:39.536Z,14.20
2022-10-08T08:12:39.531Z,14.35
2022-10-08T08:13:39.598Z,14.60
2022-10-08T08:14:39.502Z,14.48
2022-10-08T08:15:39.490Z,14.26
2022-10-08T08:16:39.655Z,14.69
2022-10-08T08:17:39.471Z,14.59
2022-10-08T08:18:39.460Z,14.54
2022-10-08T08:19:39.532Z,14.11
2022-10-08T08:20:39.438Z,13.96
2022-10-08T08:21:39.446Z,14.01
2022-10-08T08:22:39.415Z,14.08
2022-10-08T08:23:39.406Z,13.93
2022-10-08T08:24:39.436Z,13.93
2022-10-08T08:25:39.385Z,13.99
2022-10-08T08:26:39.372Z,13.86
2022-10-08T08:27:39.362Z,13.84
2022-10-08T08:28:39.404Z,13.76
2022-10-08T08:29:39.338Z,13.90
2022-10-08T08:30:39.338Z,14.04
2022-10-08T08:31:39.452Z,14.08
2022-10-08T08:32:39.305Z,14.01
2022-10-08T08:33:39.298Z,14.31
2022-10-08T08:34:39.284Z,14.19
2022-10-08T08:35:39.283Z,13.80
2022-10-08T08:36:39.272Z,13.65
2022-10-08T08:37:39.317Z,13.84
2022-10-08T08:38:39.289Z,14.04
2022-10-08T08:39:39.228Z,14.09
2022-10-08T08:40:39.220Z,14.08
2022-10-08T08:41:39.243Z,14.29
2022-10-08T08:42:39.199Z,14.79
2022-10-08T08:43:39.201Z,14.83
2022-10-08T08:44:39.189Z,14.72
2022-10-08T08:45:46.944Z,14.63
2022-10-08T08:46:40.224Z,14.57
2022-10-08T08:47:39.145Z,15.19
2022-10-08T08:48:39.135Z,15.40
2022-10-08T08:49:39.140Z,15.25
2022-10-08T08:50:39.119Z,15.23
2022-10-08T08:51:39.114Z,15.43
2022-10-08T08:52:39.093Z,15.28
2022-10-08T08:53:39.099Z,15.31
2022-10-08T08:54:39.072Z,15.31
2022-10-08T08:55:39.053Z,15.55
2022-10-08T08:56:39.060Z,15.67
2022-10-08T08:57:39.044Z,15.58
2022-10-08T08:58:39.029Z,15.34
2022-10-08T08:59:39.014Z,15.56
2022-10-08T09:00:39.023Z,15.78
2022-10-08T09:01:39.061Z,15.76
2022-10-08T09:02:39.033Z,15.64
2022-10-08T09:03:38.982Z,15.71
2022-10-08T09:04:44.298Z,15.93
2022-10-08T09:05:40.015Z,15.76
2022-10-08T09:06:38.935Z,16.13
2022-10-08T09:07:38.926Z,15.86
2022-10-08T09:08:38.950Z,15.35
2022-10-08T09:09:38.928Z,15.28
2022-10-08T09:10:38.894Z,15.91
2022-10-08T09:11:38.893Z,15.98
2022-10-08T09:12:38.871Z,15.51
2022-10-08T09:13:38.927Z,15.34
2022-10-08T09:14:38.848Z,15.56
2022-10-08T09:15:38.839Z,15.80
2022-10-08T09:16:38.937Z,15.81
2022-10-08T09:17:38.820Z,15.31
2022-10-08T09:18:38.820Z,15.00
2022-10-08T09:19:38.850Z,14.66
2022-10-08T09:20:40.398Z,14.56
2022-10-08T09:21:38.770Z,14.57
2022-10-08T09:22:38.760Z,14.59
2022-10-08T09:23:38.760Z,14.53
2022-10-08T09:24:38.737Z,14.59
2022-10-08T09:25:38.810Z,14.53
2022-10-08T09:26:38.724Z,14.41
2022-10-08T09:27:38.706Z,14.86
2022-10-08T09:28:38.737Z,14.93
2022-10-08T09:29:38.699Z,14.60
2022-10-08T09:30:38.704Z,15.07
2022-10-08T09:31:38.666Z,15.51
2022-10-08T09:32:38.685Z,15.74
2022-10-08T09:33:38.647Z,15.51
2022-10-08T09:34:38.631Z,15.71
2022-10-08T09:35:38.620Z,16.10
2022-10-08T09:36:38.610Z,15.98
2022-10-08T09:37:38.601Z,16.25
2022-10-08T09:38:38.597Z,16.23
2022-10-08T09:39:38.573Z,16.67
2022-10-08T09:40:38.562Z,16.96
2022-10-08T09:41:38.573Z,16.57
2022-10-08T09:42:38.609Z,16.67
2022-10-08T09:43:38.610Z,16.70
2022-10-08T09:44:38.525Z,17.06
2022-10-08T09:45:38.582Z,17.27
2022-10-08T09:46:38.502Z,17.14
2022-10-08T09:47:38.489Z,16.62
2022-10-08T09:48:38.488Z,16.44
2022-10-08T09:49:38.482Z,16.47
2022-10-08T09:50:38.452Z,16.81
2022-10-08T09:51:38.450Z,16.57
2022-10-08T09:52:38.430Z,16.41
2022-10-08T09:53:38.426Z,16.62
2022-10-08T09:54:38.425Z,17.05
2022-10-08T09:55:38.453Z,16.91
2022-10-08T09:56:38.392Z,16.59
2022-10-08T09:57:43.036Z,15.77
2022-10-08T09:58:39.385Z,16.11
2022-10-08T09:59:38.359Z,16.18
2022-10-08T10:00:38.345Z,15.92
2022-10-08T10:01:38.467Z,15.84
2022-10-08T10:02:38.331Z,16.01
2022-10-08T10:03:38.376Z,16.01
2022-10-08T10:04:38.411Z,16.33
2022-10-08T10:05:38.296Z,16.78
2022-10-08T10:06:38.280Z,17.14
2022-10-08T10:07:38.982Z,17.25
2022-10-08T10:08:38.259Z,17.43
2022-10-08T10:09:38.250Z,17.35
2022-10-08T10:10:38.255Z,17.03
2022-10-08T10:11:38.242Z,16.87
2022-10-08T10:12:38.216Z,16.91
2022-10-08T10:13:38.242Z,16.92
2022-10-08T10:14:38.198Z,16.66
2022-10-08T10:15:38.186Z,17.14
2022-10-08T10:16:38.226Z,17.18
2022-10-08T10:17:38.176Z,17.46
2022-10-08T10:18:38.150Z,17.51
2022-10-08T10:19:38.152Z,16.88
2022-10-08T10:20:38.142Z,16.78
2022-10-08T10:21:38.124Z,16.62
2022-10-08T10:22:38.113Z,16.67
2022-10-08T10:23:38.097Z,16.37
2022-10-08T10:24:38.088Z,16.08
2022-10-08T10:25:38.150Z,15.89
2022-10-08T10:26:38.066Z,16.41
2022-10-08T10:27:38.067Z,16.14
2022-10-08T10:28:38.146Z,15.93
2022-10-08T10:29:38.071Z,16.29
2022-10-08T10:30:38.098Z,16.98
2022-10-08T10:31:38.027Z,17.17
2022-10-08T10:32:38.022Z,17.53
2022-10-08T10:33:37.997Z,17.32
2022-10-08T10:34:37.980Z,17.33
2022-10-08T10:35:37.973Z,17.40
2022-10-08T10:36:37.974Z,17.49
2022-10-08T10:37:37.949Z,17.40
2022-10-08T10:38:42.773Z,16.82
2022-10-08T10:39:38.941Z,17.00
2022-10-08T10:40:37.915Z,16.54
2022-10-08T10:41:37.907Z,16.33
2022-10-08T10:42:37.898Z,15.92
2022-10-08T10:43:37.894Z,15.71
2022-10-08T10:44:37.875Z,15.78
2022-10-08T10:45:37.884Z,15.93
2022-10-08T10:46:37.929Z,16.13
2022-10-08T10:47:37.841Z,16.13
2022-10-08T10:48:37.905Z,16.40
2022-10-08T10:49:37.835Z,16.18
2022-10-08T10:50:37.821Z,16.26
2022-10-08T10:51:37.803Z,16.16
2022-10-08T10:52:37.790Z,16.33
2022-10-08T10:53:37.813Z,16.25
2022-10-08T10:54:37.834Z,16.55
2022-10-08T10:55:37.775Z,16.60
2022-10-08T10:56:37.748Z,16.80
2022-10-08T10:57:37.738Z,16.87
2022-10-08T10:58:37.735Z,17.05
2022-10-08T10:59:37.713Z,17.43
2022-10-08T11:00:37.728Z,17.28
2022-10-08T11:01:37.769Z,16.84
2022-10-08T11:02:37.715Z,16.63
2022-10-08T11:03:37.682Z,16.90
2022-10-08T11:04:37.663Z,16.85
2022-10-08T11:05:37.649Z,17.45
2022-10-08T11:06:37.645Z,17.66
2022-10-08T11:07:37.640Z,17.83
2022-10-08T11:08:37.616Z,17.49
2022-10-08T11:09:37.624Z,17.09
2022-10-08T11:10:37.595Z,16.78
2022-10-08T11:11:37.588Z,16.84
2022-10-08T11:12:37.581Z,17.07
2022-10-08T11:13:37.616Z,17.40
2022-10-08T11:14:37.552Z,17.65
2022-10-08T11:15:37.613Z,17.24
2022-10-08T11:16:37.527Z,17.02
2022-10-08T11:17:37.544Z,17.12
2022-10-08T11:18:37.560Z,16.92
2022-10-08T11:19:37.504Z,17.18
2022-10-08T11:20:37.486Z,17.18
2022-10-08T11:21:37.489Z,17.20
2022-10-08T11:22:37.464Z,17.05
2022-10-08T11:23:37.452Z,17.20
2022-10-08T11:24:37.506Z,17.02
2022-10-08T11:26:02.103Z,16.80
2022-10-08T11:26:38.533Z,16.91
2022-10-08T11:27:37.413Z,16.91
2022-10-08T11:28:37.445Z,17.07
2022-10-08T11:29:37.390Z,16.98
2022-10-08T11:30:37.460Z,16.99
2022-10-08T11:31:37.365Z,16.88
2022-10-08T11:32:37.365Z,16.80
2022-10-08T11:33:37.372Z,16.55
2022-10-08T11:34:37.353Z,16.77
2022-10-08T11:35:37.341Z,16.62
2022-10-08T11:36:37.370Z,16.57
2022-10-08T11:37:37.303Z,16.44
2022-10-08T11:38:37.291Z,16.45
2022-10-08T11:39:37.281Z,16.62
2022-10-08T11:40:37.280Z,16.63
2022-10-08T11:41:37.257Z,16.72
2022-10-08T11:42:48.166Z,16.47
2022-10-08T11:43:38.235Z,16.40
2022-10-08T11:44:37.265Z,16.33
2022-10-08T11:45:37.215Z,16.25
2022-10-08T11:46:37.256Z,16.30
2022-10-08T11:47:37.192Z,16.29
2022-10-08T11:48:37.198Z,16.25
2022-10-08T11:49:37.197Z,15.89
2022-10-08T11:50:37.162Z,15.86
2022-10-08T11:51:37.149Z,15.85
2022-10-08T11:52:37.144Z,15.70
2022-10-08T11:53:37.168Z,15.73
2022-10-08T11:54:37.116Z,15.64
2022-10-08T11:55:37.105Z,15.64
2022-10-08T11:56:37.095Z,15.78
2022-10-08T11:58:06.539Z,15.86
2022-10-08T11:58:38.085Z,15.89
2022-10-08T11:59:37.064Z,15.93
2022-10-08T12:00:37.065Z,16.16
2022-10-08T12:01:37.044Z,15.96
2022-10-08T12:02:37.148Z,16.03
2022-10-08T12:03:37.285Z,15.86
2022-10-08T12:04:37.011Z,15.86
2022-10-08T12:05:37.035Z,15.91
2022-10-08T12:06:37.012Z,15.78
2022-10-08T12:07:36.978Z,15.78
2022-10-08T12:08:36.968Z,15.71
2022-10-08T12:09:36.961Z,15.59
2022-10-08T12:10:36.954Z,15.52
2022-10-08T12:11:36.938Z,15.64
2022-10-08T12:12:37.019Z,15.68
2022-10-08T12:13:36.943Z,15.84
2022-10-08T12:14:36.904Z,15.77
2022-10-08T12:15:37.032Z,15.76
2022-10-08T12:16:36.882Z,15.66
2022-10-08T12:17:36.883Z,15.84
2022-10-08T12:18:36.917Z,15.68
2022-10-08T12:19:36.847Z,15.91
2022-10-08T12:20:36.839Z,15.96
2022-10-08T12:21:36.883Z,15.99
2022-10-08T12:22:36.829Z,15.76
2022-10-08T12:23:36.814Z,15.74
2022-10-08T12:24:36.794Z,15.76
2022-10-08T12:25:36.787Z,15.66
2022-10-08T12:26:36.775Z,15.34
2022-10-08T12:27:36.773Z,15.53
2022-10-08T12:28:36.762Z,15.38
2022-10-08T12:29:36.797Z,15.60
2022-10-08T12:30:36.733Z,15.80
2022-10-08T12:31:36.823Z,15.85
2022-10-08T12:32:36.725Z,15.81
2022-10-08T12:33:36.703Z,16.18
2022-10-08T12:34:36.691Z,16.36
2022-10-08T12:35:36.694Z,16.37
2022-10-08T12:36:36.682Z,16.22
2022-10-08T12:37:36.690Z,16.51
2022-10-08T12:38:36.654Z,16.69
2022-10-08T12:39:36.635Z,16.67
2022-10-08T12:40:36.625Z,16.69
2022-10-08T12:41:36.615Z,16.51
2022-10-08T12:42:36.613Z,16.70
2022-10-08T12:43:36.604Z,16.55
2022-10-08T12:44:36.582Z,16.55
2022-10-08T12:45:36.571Z,16.67
2022-10-08T12:46:36.639Z,16.91
2022-10-08T12:47:36.615Z,16.95
2022-10-08T12:48:36.538Z,16.70
2022-10-08T12:49:36.543Z,16.67
2022-10-08T12:50:36.517Z,16.85
2022-10-08T12:51:36.510Z,16.67
2022-10-08T12:52:36.524Z,16.48
2022-10-08T12:53:36.537Z,16.47
2022-10-08T12:54:36.477Z,16.51
2022-10-08T12:55:38.189Z,16.36
2022-10-08T12:56:36.457Z,16.22
2022-10-08T12:57:36.456Z,16.08
2022-10-08T12:58:36.437Z,16.34
2022-10-08T12:59:36.479Z,16.33
2022-10-08T13:00:36.446Z,16.50
2022-10-08T13:01:36.451Z,16.22
2022-10-08T13:02:36.386Z,16.18
2022-10-08T13:03:36.404Z,16.11
2022-10-08T13:04:36.374Z,16.30
2022-10-08T13:05:36.364Z,16.33
2022-10-08T13:06:36.345Z,16.36